Station Historical Data
Daily Summary for August 18, 2017 Units:  English    Metric   Both
« Previous Day
Next Day »
Daily Weekly Monthly Yearly Custom
  High: Low: Average:
Temperature: 87.2 °F 67.8 °F 76.2 °F
Dew Point: 63.8 °F 53.5 °F 59 °F
Humidity: 69 % 40 % 56 %
Wind Speed: 7.0 mph 0.0 mph 0.6 mph
Wind Gust: 12.0 mph - -
Wind:- - South
Pressure: 29.96 in 29.88 in -
Precipitation: 0.00 in    
Historical Graphs
 
 
Tabular Data for August 18, 2017
Time Temperature Dew Point Pressure Wind Wind Speed Wind Gust Humidity Rainfall Rate (Hourly) solar
00:04 70.1 °F 59.1 °F 29.94 in South 4.0 mph 5.0 mph 68 % 0.00 in 0.00 W/m2
00:09 70.1 °F 59.5 °F 29.93 in SSE 1.0 mph 7.0 mph 69 % 0.00 in 0.00 W/m2
00:14 70.1 °F 59.5 °F 29.93 in SSE 2.0 mph 6.0 mph 69 % 0.00 in 0.00 W/m2
00:19 70.1 °F 59.5 °F 29.93 in SE 1.0 mph 8.0 mph 69 % 0.00 in 0.00 W/m2
00:24 70.1 °F 59.5 °F 29.93 in SE 6.0 mph 8.0 mph 69 % 0.00 in 0.00 W/m2
00:29 70.1 °F 59.5 °F 29.93 in Calm   8.0 mph 69 % 0.00 in 0.00 W/m2
00:34 70.1 °F 59.5 °F 29.93 in ESE 4.0 mph 7.0 mph 69 % 0.00 in 0.00 W/m2
00:39 70.1 °F 59.5 °F 29.93 in Calm   7.0 mph 69 % 0.00 in 0.00 W/m2
00:44 70.1 °F 59.5 °F 29.93 in East 4.0 mph 8.0 mph 69 % 0.00 in 0.00 W/m2
00:49 70.1 °F 59.5 °F 29.93 in Calm   7.0 mph 69 % 0.00 in 0.00 W/m2
00:54 70.1 °F 59.5 °F 29.93 in Calm   8.0 mph 69 % 0.00 in 0.00 W/m2
00:59 70.2 °F 59.6 °F 29.93 in Calm   5.0 mph 69 % 0.00 in 0.00 W/m2
01:04 70.2 °F 59.6 °F 29.93 in Calm   7.0 mph 69 % 0.00 in 0.00 W/m2
01:10 70.2 °F 59.6 °F 29.93 in Calm   8.0 mph 69 % 0.00 in 0.00 W/m2
01:14 70.3 °F 59.7 °F 29.93 in Calm   6.0 mph 69 % 0.00 in 0.00 W/m2
01:19 70.4 °F 59.8 °F 29.93 in Calm   7.0 mph 69 % 0.00 in 0.00 W/m2
01:25 70.4 °F 59.3 °F 29.93 in Calm   5.0 mph 68 % 0.00 in 0.00 W/m2
01:30 70.5 °F 59.4 °F 29.93 in Calm   1.0 mph 68 % 0.00 in 0.00 W/m2
01:34 70.5 °F 59.4 °F 29.92 in Calm   1.0 mph 68 % 0.00 in 0.00 W/m2
01:39 70.4 °F 58.9 °F 29.92 in Calm     67 % 0.00 in 0.00 W/m2
01:44 70.4 °F 58.9 °F 29.92 in Calm     67 % 0.00 in 0.00 W/m2
01:49 70.4 °F 58.9 °F 29.92 in Calm     67 % 0.00 in 0.00 W/m2
01:55 70.3 °F 58.8 °F 29.92 in Calm     67 % 0.00 in 0.00 W/m2
02:00 70.3 °F 58.8 °F 29.92 in Calm     67 % 0.00 in 0.00 W/m2
02:05 70.2 °F 58.7 °F 29.92 in Calm     67 % 0.00 in 0.00 W/m2
02:06 70.1 °F 58.7 °F 29.92 in Calm     67 % 0.00 in 0.00 W/m2
02:11 70.0 °F 59.0 °F 29.92 in Calm     68 % 0.00 in 0.00 W/m2
02:16 69.9 °F 58.9 °F 29.92 in Calm     68 % 0.00 in 0.00 W/m2
02:21 69.8 °F 58.8 °F 29.92 in East 4.0 mph 6.0 mph 68 % 0.00 in 0.00 W/m2
02:26 69.7 °F 58.3 °F 29.92 in Calm     67 % 0.00 in 0.00 W/m2
02:31 69.5 °F 57.7 °F 29.92 in Calm     66 % 0.00 in 0.00 W/m2
02:36 69.5 °F 57.7 °F 29.92 in Calm     66 % 0.00 in 0.00 W/m2
02:41 69.5 °F 57.7 °F 29.92 in Calm     66 % 0.00 in 0.00 W/m2
02:47 69.4 °F 57.1 °F 29.92 in Calm     65 % 0.00 in 0.00 W/m2
02:52 69.4 °F 57.1 °F 29.92 in Calm   1.0 mph 65 % 0.00 in 0.00 W/m2
02:57 69.4 °F 57.1 °F 29.92 in Calm   7.0 mph 65 % 0.00 in 0.00 W/m2
03:02 69.4 °F 56.7 °F 29.92 in East 2.0 mph 2.0 mph 64 % 0.00 in 0.00 W/m2
03:07 69.4 °F 56.7 °F 29.92 in Calm   1.0 mph 64 % 0.00 in 0.00 W/m2
03:12 69.4 °F 56.3 °F 29.92 in Calm     63 % 0.00 in 0.00 W/m2
03:17 69.4 °F 56.3 °F 29.92 in Calm     63 % 0.00 in 0.00 W/m2
03:22 69.4 °F 56.3 °F 29.92 in Calm   4.0 mph 63 % 0.00 in 0.00 W/m2
03:27 69.4 °F 56.3 °F 29.92 in Calm   7.0 mph 63 % 0.00 in 0.00 W/m2
03:32 69.4 °F 55.8 °F 29.92 in Calm     62 % 0.00 in 0.00 W/m2
03:37 69.4 °F 55.8 °F 29.92 in Calm     62 % 0.00 in 0.00 W/m2
03:42 69.3 °F 55.7 °F 29.92 in Calm     62 % 0.00 in 0.00 W/m2
03:43 69.3 °F 55.7 °F 29.92 in Calm     62 % 0.00 in 0.00 W/m2
03:48 69.3 °F 55.7 °F 29.92 in Calm   1.0 mph 62 % 0.00 in 0.00 W/m2
03:53 69.3 °F 55.7 °F 29.92 in Calm     62 % 0.00 in 0.00 W/m2
03:58 69.2 °F 55.6 °F 29.92 in Calm   5.0 mph 62 % 0.00 in 0.00 W/m2
04:03 69.2 °F 55.6 °F 29.92 in Calm     62 % 0.00 in 0.00 W/m2
04:08 69.2 °F 55.6 °F 29.92 in Calm   5.0 mph 62 % 0.00 in 0.00 W/m2
04:13 69.1 °F 55.5 °F 29.93 in Calm   5.0 mph 62 % 0.00 in 0.00 W/m2
04:18 69.1 °F 55.5 °F 29.93 in Calm   5.0 mph 62 % 0.00 in 0.00 W/m2
04:19 69.1 °F 55.5 °F 29.92 in Calm   5.0 mph 62 % 0.00 in 0.00 W/m2
04:24 69.0 °F 55.5 °F 29.93 in Calm   6.0 mph 62 % 0.00 in 0.00 W/m2
04:29 69.0 °F 55.5 °F 29.93 in Calm   5.0 mph 62 % 0.00 in 0.00 W/m2
04:34 68.9 °F 54.9 °F 29.92 in Calm   7.0 mph 61 % 0.00 in 0.00 W/m2
04:39 68.8 °F 54.8 °F 29.92 in ESE 5.0 mph 11.0 mph 61 % 0.00 in 0.00 W/m2
04:44 68.7 °F 54.7 °F 29.93 in ESE 1.0 mph 7.0 mph 61 % 0.00 in 0.00 W/m2
04:49 68.6 °F 54.6 °F 29.93 in Calm   7.0 mph 61 % 0.00 in 0.00 W/m2
04:54 68.6 °F 54.6 °F 29.93 in Calm   7.0 mph 61 % 0.00 in 0.00 W/m2
04:59 68.5 °F 54.1 °F 29.93 in Calm   5.0 mph 60 % 0.00 in 0.00 W/m2
05:04 68.5 °F 54.1 °F 29.93 in Calm   5.0 mph 60 % 0.00 in 0.00 W/m2
05:09 68.5 °F 54.1 °F 29.93 in Calm   1.0 mph 60 % 0.00 in 0.00 W/m2
05:14 68.5 °F 54.1 °F 29.94 in Calm   1.0 mph 60 % 0.00 in 0.00 W/m2
05:19 68.5 °F 54.1 °F 29.94 in Calm   1.0 mph 60 % 0.00 in 0.00 W/m2
05:24 68.4 °F 54.0 °F 29.94 in Calm   5.0 mph 60 % 0.00 in 0.00 W/m2
05:29 68.4 °F 54.4 °F 29.94 in ESE 4.0 mph 7.0 mph 61 % 0.00 in 0.00 W/m2
05:34 68.4 °F 54.4 °F 29.94 in ESE 1.0 mph 6.0 mph 61 % 0.00 in 0.00 W/m2
05:39 68.4 °F 54.4 °F 29.94 in Calm   1.0 mph 61 % 0.00 in 0.00 W/m2
05:44 68.3 °F 54.3 °F 29.94 in ESE 1.0 mph 5.0 mph 61 % 0.00 in 0.00 W/m2
05:49 68.3 °F 54.3 °F 29.94 in Calm   7.0 mph 61 % 0.00 in 0.00 W/m2
05:54 68.3 °F 54.8 °F 29.94 in Calm   6.0 mph 62 % 0.00 in 0.00 W/m2
05:59 68.2 °F 54.7 °F 29.94 in Calm   4.0 mph 62 % 0.00 in 0.00 W/m2
06:00 68.2 °F 54.7 °F 29.94 in Calm   4.0 mph 62 % 0.00 in 0.00 W/m2
06:05 68.2 °F 54.7 °F 29.94 in Calm   5.0 mph 62 % 0.00 in 0.00 W/m2
06:10 68.1 °F 54.6 °F 29.94 in Calm   6.0 mph 62 % 0.00 in 0.00 W/m2
06:15 68.1 °F 54.2 °F 29.94 in ESE 1.0 mph 7.0 mph 61 % 0.00 in 0.00 W/m2
06:20 68.1 °F 54.2 °F 29.94 in ESE 2.0 mph 6.0 mph 61 % 0.00 in 5.00 W/m2
06:25 68.0 °F 53.6 °F 29.94 in ESE 5.0 mph 6.0 mph 60 % 0.00 in 9.00 W/m2
06:30 67.9 °F 53.5 °F 29.95 in Calm   6.0 mph 60 % 0.00 in 12.00 W/m2
06:35 67.9 °F 53.5 °F 29.94 in Calm   5.0 mph 60 % 0.00 in 16.00 W/m2
06:40 67.9 °F 53.5 °F 29.94 in Calm   1.0 mph 60 % 0.00 in 19.00 W/m2
06:45 67.9 °F 53.5 °F 29.95 in Calm   6.0 mph 60 % 0.00 in 23.00 W/m2
06:51 67.9 °F 53.5 °F 29.95 in Calm   4.0 mph 60 % 0.00 in 30.00 W/m2
06:56 67.8 °F 53.9 °F 29.95 in Calm   4.0 mph 61 % 0.00 in 39.00 W/m2
07:01 67.8 °F 53.9 °F 29.95 in Calm     61 % 0.00 in 49.00 W/m2
07:06 67.8 °F 53.9 °F 29.95 in Calm     61 % 0.00 in 62.00 W/m2
07:11 67.8 °F 54.3 °F 29.95 in Calm   1.0 mph 62 % 0.00 in 74.00 W/m2
07:16 67.8 °F 54.3 °F 29.95 in ESE 1.0 mph 5.0 mph 62 % 0.00 in 88.00 W/m2
07:21 67.8 °F 54.3 °F 29.95 in Calm   2.0 mph 62 % 0.00 in 100.00 W/m2
07:26 67.8 °F 54.8 °F 29.95 in Calm   4.0 mph 63 % 0.00 in 116.00 W/m2
07:31 67.8 °F 55.2 °F 29.95 in Calm   2.0 mph 64 % 0.00 in 134.00 W/m2
07:36 67.8 °F 55.2 °F 29.95 in ESE 4.0 mph 4.0 mph 64 % 0.00 in 151.00 W/m2
07:41 67.8 °F 55.2 °F 29.95 in Calm   4.0 mph 64 % 0.00 in 171.00 W/m2
07:46 67.9 °F 55.3 °F 29.95 in Calm   5.0 mph 64 % 0.00 in 188.00 W/m2
07:51 67.9 °F 55.3 °F 29.96 in Calm   4.0 mph 64 % 0.00 in 209.00 W/m2
07:56 67.9 °F 55.3 °F 29.96 in Calm   2.0 mph 64 % 0.00 in 223.00 W/m2
08:01 67.9 °F 55.3 °F 29.96 in Calm     64 % 0.00 in 246.00 W/m2
08:03 67.9 °F 55.7 °F 29.96 in Calm   2.0 mph 65 % 0.00 in 251.00 W/m2
08:08 68.1 °F 55.9 °F 29.96 in Calm   4.0 mph 65 % 0.00 in 267.00 W/m2
08:13 68.2 °F 56.0 °F 29.96 in Calm   4.0 mph 65 % 0.00 in 285.00 W/m2
08:18 68.3 °F 56.1 °F 29.96 in Calm     65 % 0.00 in 301.00 W/m2
08:23 68.4 °F 56.2 °F 29.96 in Calm     65 % 0.00 in 316.00 W/m2
08:28 68.6 °F 56.4 °F 29.96 in Calm   2.0 mph 65 % 0.00 in 334.00 W/m2
08:33 68.8 °F 57.0 °F 29.96 in Calm   1.0 mph 66 % 0.00 in 350.00 W/m2
08:38 69.0 °F 57.2 °F 29.96 in Calm     66 % 0.00 in 364.00 W/m2
08:40 69.1 °F 57.3 °F 29.96 in Calm     66 % 0.00 in 369.00 W/m2
08:45 69.3 °F 57.0 °F 29.96 in Calm     65 % 0.00 in 385.00 W/m2
08:50 69.6 °F 57.3 °F 29.96 in Calm     65 % 0.00 in 403.00 W/m2
08:55 69.9 °F 58.5 °F 29.96 in Calm     67 % 0.00 in 418.00 W/m2
09:00 70.2 °F 58.7 °F 29.95 in Calm     67 % 0.00 in 436.00 W/m2
09:05 70.5 °F 59.0 °F 29.95 in Calm     67 % 0.00 in 450.00 W/m2
09:10 70.8 °F 58.9 °F 29.95 in Calm     66 % 0.00 in 466.00 W/m2
09:15 71.1 °F 58.8 °F 29.95 in Calm   4.0 mph 65 % 0.00 in 482.00 W/m2
09:20 71.4 °F 59.5 °F 29.95 in Calm   2.0 mph 66 % 0.00 in 496.00 W/m2
09:25 71.9 °F 59.9 °F 29.95 in Calm     66 % 0.00 in 508.00 W/m2
09:30 72.4 °F 59.5 °F 29.95 in Calm   2.0 mph 64 % 0.00 in 522.00 W/m2
09:35 72.8 °F 60.4 °F 29.95 in Calm   1.0 mph 65 % 0.00 in 536.00 W/m2
09:40 73.3 °F 60.4 °F 29.95 in Calm   2.0 mph 64 % 0.00 in 550.00 W/m2
09:45 73.8 °F 60.4 °F 29.95 in Calm   5.0 mph 63 % 0.00 in 566.00 W/m2
09:50 74.2 °F 60.8 °F 29.95 in East 1.0 mph 2.0 mph 63 % 0.00 in 578.00 W/m2
09:56 74.7 °F 60.8 °F 29.95 in Calm   2.0 mph 62 % 0.00 in 592.00 W/m2
10:01 75.1 °F 60.8 °F 29.95 in Calm   6.0 mph 61 % 0.00 in 605.00 W/m2
10:06 75.4 °F 60.1 °F 29.95 in Calm     59 % 0.00 in 619.00 W/m2
10:11 75.6 °F 60.3 °F 29.95 in ENE 2.0 mph 2.0 mph 59 % 0.00 in 631.00 W/m2
10:16 75.9 °F 61.0 °F 29.95 in Calm     60 % 0.00 in 642.00 W/m2
10:21 76.2 °F 61.3 °F 29.95 in Calm     60 % 0.00 in 654.00 W/m2
10:22 76.2 °F 60.8 °F 29.95 in Calm     59 % 0.00 in 657.00 W/m2
10:27 76.5 °F 61.1 °F 29.95 in ENE 1.0 mph 3.0 mph 59 % 0.00 in 668.00 W/m2
10:32 76.8 °F 60.4 °F 29.95 in Calm     57 % 0.00 in 680.00 W/m2
10:37 77.2 °F 61.3 °F 29.95 in Calm   1.0 mph 58 % 0.00 in 691.00 W/m2
10:42 77.6 °F 61.2 °F 29.95 in Calm   1.0 mph 57 % 0.00 in 701.00 W/m2
10:47 78.0 °F 62.0 °F 29.94 in NE 2.0 mph 6.0 mph 58 % 0.00 in 712.00 W/m2
10:52 78.4 °F 61.4 °F 29.94 in NE 3.0 mph 3.0 mph 56 % 0.00 in 721.00 W/m2
10:57 78.7 °F 61.7 °F 29.94 in NE 2.0 mph 3.0 mph 56 % 0.00 in 731.00 W/m2
11:02 79.1 °F 61.0 °F 29.94 in NE 1.0 mph 4.0 mph 54 % 0.00 in 742.00 W/m2
11:07 79.3 °F 61.2 °F 29.94 in Calm   2.0 mph 54 % 0.00 in 751.00 W/m2
11:12 79.5 °F 61.4 °F 29.94 in Calm   1.0 mph 54 % 0.00 in 759.00 W/m2
11:18 79.8 °F 61.7 °F 29.94 in Calm   2.0 mph 54 % 0.00 in 768.00 W/m2
11:23 80.2 °F 61.5 °F 29.94 in NNE 1.0 mph 3.0 mph 53 % 0.00 in 775.00 W/m2
11:28 80.4 °F 62.2 °F 29.94 in Calm   1.0 mph 54 % 0.00 in 784.00 W/m2
11:33 80.7 °F 62.0 °F 29.94 in Calm   3.0 mph 53 % 0.00 in 793.00 W/m2
11:38 81.0 °F 62.3 °F 29.94 in Calm   5.0 mph 53 % 0.00 in 798.00 W/m2
11:43 81.3 °F 62.5 °F 29.94 in Calm   1.0 mph 53 % 0.00 in 805.00 W/m2
11:48 81.6 °F 62.3 °F 29.94 in Calm   2.0 mph 52 % 0.00 in 810.00 W/m2
11:50 81.7 °F 62.4 °F 29.94 in Calm   2.0 mph 52 % 0.00 in 814.00 W/m2
11:55 82.0 °F 62.1 °F 29.94 in Calm   2.0 mph 51 % 0.00 in 819.00 W/m2
12:00 82.3 °F 61.8 °F 29.93 in NNW 1.0 mph 6.0 mph 50 % 0.00 in 824.00 W/m2
12:05 82.5 °F 62.0 °F 29.93 in Calm   4.0 mph 50 % 0.00 in 830.00 W/m2
12:10 83.0 °F 62.5 °F 29.93 in Calm   7.0 mph 50 % 0.00 in 835.00 W/m2
12:15 83.4 °F 62.3 °F 29.93 in WNW 2.0 mph 6.0 mph 49 % 0.00 in 837.00 W/m2
12:20 83.7 °F 62.5 °F 29.93 in Calm   5.0 mph 49 % 0.00 in 840.00 W/m2
12:26 83.8 °F 62.6 °F 29.93 in Calm   3.0 mph 49 % 0.00 in 844.00 W/m2
12:31 84.2 °F 63.0 °F 29.93 in Calm   3.0 mph 49 % 0.00 in 847.00 W/m2
12:36 84.6 °F 62.8 °F 29.93 in Calm   3.0 mph 48 % 0.00 in 851.00 W/m2
12:41 85.0 °F 61.9 °F 29.93 in Calm   5.0 mph 46 % 0.00 in 853.00 W/m2
12:46 85.5 °F 63.0 °F 29.93 in Calm   4.0 mph 47 % 0.00 in 856.00 W/m2
12:51 85.6 °F 63.1 °F 29.93 in WNW 2.0 mph 6.0 mph 47 % 0.00 in 854.00 W/m2
12:56 85.7 °F 63.8 °F 29.93 in Calm   5.0 mph 48 % 0.00 in 854.00 W/m2
13:01 86.1 °F 63.5 °F 29.92 in Calm   8.0 mph 47 % 0.00 in 856.00 W/m2
13:06 86.5 °F 63.3 °F 29.92 in West 2.0 mph 5.0 mph 46 % 0.00 in 858.00 W/m2
13:11 86.5 °F 62.7 °F 29.92 in West 1.0 mph 6.0 mph 45 % 0.00 in 858.00 W/m2
13:16 86.6 °F 63.4 °F 29.92 in West 5.0 mph 11.0 mph 46 % 0.00 in 858.00 W/m2
13:21 86.5 °F 63.3 °F 29.92 in Calm     46 % 0.00 in 854.00 W/m2
13:26 86.2 °F 63.6 °F 29.92 in West 4.0 mph 4.0 mph 47 % 0.00 in 853.00 W/m2
13:31 86.2 °F 63.6 °F 29.92 in Calm   6.0 mph 47 % 0.00 in 851.00 W/m2
13:36 86.3 °F 63.1 °F 29.92 in Calm   5.0 mph 46 % 0.00 in 849.00 W/m2
13:41 86.1 °F 62.9 °F 29.92 in West 1.0 mph 2.0 mph 46 % 0.00 in 846.00 W/m2
13:46 86.0 °F 62.8 °F 29.92 in West 4.0 mph 4.0 mph 46 % 0.00 in 840.00 W/m2
13:51 86.3 °F 61.8 °F 29.92 in West 1.0 mph 2.0 mph 44 % 0.00 in 837.00 W/m2
13:56 86.4 °F 62.6 °F 29.92 in West 2.0 mph 4.0 mph 45 % 0.00 in 833.00 W/m2
14:01 86.7 °F 62.8 °F 29.92 in West 5.0 mph 8.0 mph 45 % 0.00 in 831.00 W/m2
14:06 86.8 °F 61.6 °F 29.91 in West 4.0 mph 6.0 mph 43 % 0.00 in 826.00 W/m2
14:11 86.9 °F 62.4 °F 29.92 in Calm     44 % 0.00 in 821.00 W/m2
14:16 86.7 °F 62.2 °F 29.91 in West 7.0 mph 7.0 mph 44 % 0.00 in 814.00 W/m2
14:23 86.6 °F 62.8 °F 29.91 in Calm   5.0 mph 45 % 0.00 in 807.00 W/m2
14:28 86.5 °F 61.4 °F 29.91 in Calm   1.0 mph 43 % 0.00 in 798.00 W/m2
14:33 86.5 °F 61.4 °F 29.91 in West 1.0 mph 10.0 mph 43 % 0.00 in 796.00 W/m2
14:38 86.5 °F 62.0 °F 29.91 in Calm   8.0 mph 44 % 0.00 in 789.00 W/m2
14:43 86.5 °F 61.4 °F 29.91 in Calm   2.0 mph 43 % 0.00 in 782.00 W/m2
14:48 86.6 °F 62.1 °F 29.91 in West 3.0 mph 5.0 mph 44 % 0.00 in 775.00 W/m2
14:53 86.6 °F 62.1 °F 29.90 in West 2.0 mph 3.0 mph 44 % 0.00 in 766.00 W/m2
14:58 86.7 °F 60.9 °F 29.90 in Calm   7.0 mph 42 % 0.00 in 758.00 W/m2
15:03 87.0 °F 60.5 °F 29.90 in Calm   6.0 mph 41 % 0.00 in 749.00 W/m2
15:08 87.2 °F 60.7 °F 29.90 in West 1.0 mph 6.0 mph 41 % 0.00 in 742.00 W/m2
15:13 87.1 °F 60.6 °F 29.90 in Calm   1.0 mph 41 % 0.00 in 729.00 W/m2
15:18 86.9 °F 60.4 °F 29.90 in Calm     41 % 0.00 in 717.00 W/m2
15:23 86.8 °F 61.0 °F 29.90 in Calm   4.0 mph 42 % 0.00 in 707.00 W/m2
15:28 86.7 °F 60.9 °F 29.90 in Calm   3.0 mph 42 % 0.00 in 700.00 W/m2
15:33 86.6 °F 60.8 °F 29.90 in Calm   5.0 mph 42 % 0.00 in 689.00 W/m2
15:38 86.6 °F 60.1 °F 29.90 in Calm   5.0 mph 41 % 0.00 in 679.00 W/m2
15:43 86.7 °F 60.9 °F 29.90 in Calm   3.0 mph 42 % 0.00 in 668.00 W/m2
15:48 86.6 °F 60.8 °F 29.90 in Calm   5.0 mph 42 % 0.00 in 652.00 W/m2
15:53 86.6 °F 60.1 °F 29.90 in Calm   7.0 mph 41 % 0.00 in 642.00 W/m2
15:58 86.6 °F 60.8 °F 29.89 in Calm   9.0 mph 42 % 0.00 in 629.00 W/m2
16:03 86.8 °F 61.0 °F 29.90 in WSW 3.0 mph 3.0 mph 42 % 0.00 in 617.00 W/m2
16:08 86.9 °F 60.4 °F 29.90 in WSW 1.0 mph 7.0 mph 41 % 0.00 in 605.00 W/m2
16:13 86.8 °F 61.0 °F 29.89 in WSW 1.0 mph 7.0 mph 42 % 0.00 in 594.00 W/m2
16:18 86.8 °F 60.3 °F 29.89 in Calm   7.0 mph 41 % 0.00 in 580.00 W/m2
16:23 86.8 °F 60.3 °F 29.89 in Calm   9.0 mph 41 % 0.00 in 566.00 W/m2
16:28 86.8 °F 60.3 °F 29.89 in Calm   8.0 mph 41 % 0.00 in 557.00 W/m2
16:33 86.7 °F 60.2 °F 29.89 in Calm   5.0 mph 41 % 0.00 in 540.00 W/m2
16:38 86.6 °F 60.8 °F 29.89 in WSW 1.0 mph 1.0 mph 42 % 0.00 in 526.00 W/m2
16:40 86.5 °F 60.0 °F 29.89 in Calm   3.0 mph 41 % 0.00 in 522.00 W/m2
16:45 86.4 °F 59.9 °F 29.89 in WSW 3.0 mph 8.0 mph 41 % 0.00 in 508.00 W/m2
16:50 86.4 °F 59.9 °F 29.89 in WSW 3.0 mph 7.0 mph 41 % 0.00 in 492.00 W/m2
16:52 86.4 °F 59.9 °F 29.89 in Calm   5.0 mph 41 % 0.00 in 489.00 W/m2
16:57 86.4 °F 59.2 °F 29.89 in Calm     40 % 0.00 in 475.00 W/m2
17:02 86.4 °F 59.2 °F 29.89 in Calm   4.0 mph 40 % 0.00 in 459.00 W/m2
17:07 86.4 °F 59.9 °F 29.89 in Calm   5.0 mph 41 % 0.00 in 443.00 W/m2
17:12 86.5 °F 60.7 °F 29.89 in WSW 3.0 mph 3.0 mph 42 % 0.00 in 427.00 W/m2
17:17 86.4 °F 59.2 °F 29.89 in Calm     40 % 0.00 in 411.00 W/m2
17:22 86.4 °F 59.9 °F 29.89 in WSW 3.0 mph 4.0 mph 41 % 0.00 in 397.00 W/m2
17:27 86.3 °F 61.2 °F 29.89 in Calm     43 % 0.00 in 383.00 W/m2
17:32 86.3 °F 61.2 °F 29.89 in WSW 2.0 mph 5.0 mph 43 % 0.00 in 367.00 W/m2
17:37 86.1 °F 61.0 °F 29.89 in Calm   1.0 mph 43 % 0.00 in 350.00 W/m2
17:42 85.9 °F 60.2 °F 29.88 in Calm   5.0 mph 42 % 0.00 in 336.00 W/m2
17:47 85.9 °F 60.2 °F 29.89 in Calm   2.0 mph 42 % 0.00 in 318.00 W/m2
17:52 85.8 °F 60.7 °F 29.89 in WSW 2.0 mph 6.0 mph 43 % 0.00 in 302.00 W/m2
17:57 85.8 °F 59.4 °F 29.88 in WSW 2.0 mph 2.0 mph 41 % 0.00 in 287.00 W/m2
18:02 85.7 °F 60.7 °F 29.89 in WSW 1.0 mph 1.0 mph 43 % 0.00 in 271.00 W/m2
18:07 85.7 °F 60.0 °F 29.88 in Calm   2.0 mph 42 % 0.00 in 257.00 W/m2
18:12 85.6 °F 59.9 °F 29.88 in Calm     42 % 0.00 in 239.00 W/m2
18:17 85.4 °F 60.4 °F 29.88 in Calm   1.0 mph 43 % 0.00 in 223.00 W/m2
18:22 85.3 °F 60.9 °F 29.88 in WSW 2.0 mph 4.0 mph 44 % 0.00 in 207.00 W/m2
18:27 85.0 °F 60.0 °F 29.88 in WSW 3.0 mph 4.0 mph 43 % 0.00 in 192.00 W/m2
18:32 84.8 °F 60.5 °F 29.88 in Calm     44 % 0.00 in 178.00 W/m2
18:37 84.5 °F 60.2 °F 29.88 in WSW 3.0 mph 5.0 mph 44 % 0.00 in 158.00 W/m2
18:42 84.2 °F 60.6 °F 29.88 in Calm     45 % 0.00 in 141.00 W/m2
18:47 83.7 °F 60.7 °F 29.88 in Calm     46 % 0.00 in 123.00 W/m2
18:52 83.2 °F 60.9 °F 29.88 in SW 2.0 mph 2.0 mph 47 % 0.00 in 107.00 W/m2
18:57 82.8 °F 61.1 °F 29.88 in Calm     48 % 0.00 in 91.00 W/m2
19:02 82.5 °F 60.8 °F 29.88 in Calm   1.0 mph 48 % 0.00 in 76.00 W/m2
19:07 82.1 °F 61.1 °F 29.88 in Calm     49 % 0.00 in 62.00 W/m2
19:08 82.1 °F 61.1 °F 29.88 in Calm     49 % 0.00 in 62.00 W/m2
19:13 81.6 °F 61.2 °F 29.88 in Calm     50 % 0.00 in 49.00 W/m2
19:18 81.2 °F 61.4 °F 29.88 in Calm     51 % 0.00 in 39.00 W/m2
19:23 80.8 °F 61.5 °F 29.88 in Calm     52 % 0.00 in 30.00 W/m2
19:28 80.5 °F 61.3 °F 29.88 in Calm     52 % 0.00 in 23.00 W/m2
19:33 79.9 °F 61.3 °F 29.88 in Calm     53 % 0.00 in 18.00 W/m2
19:38 79.5 °F 60.9 °F 29.89 in Calm     53 % 0.00 in 16.00 W/m2
19:43 79.1 °F 61.0 °F 29.89 in Calm     54 % 0.00 in 12.00 W/m2
19:48 78.6 °F 60.6 °F 29.89 in WSW 1.0 mph 1.0 mph 54 % 0.00 in 9.00 W/m2
19:53 78.3 °F 60.8 °F 29.89 in Calm     55 % 0.00 in 5.00 W/m2
19:58 78.0 °F 60.5 °F 29.89 in Calm     55 % 0.00 in 0.00 W/m2
20:03 77.7 °F 60.3 °F 29.89 in Calm     55 % 0.00 in 0.00 W/m2
20:08 77.5 °F 60.6 °F 29.89 in Calm     56 % 0.00 in 0.00 W/m2
20:16 77.0 °F 60.1 °F 29.89 in Calm     56 % 0.00 in 0.00 W/m2
20:21 76.6 °F 59.8 °F 29.89 in Calm     56 % 0.00 in 0.00 W/m2
20:22 76.6 °F 59.8 °F 29.90 in Calm     56 % 0.00 in 0.00 W/m2
20:27 76.4 °F 60.1 °F 29.90 in Calm     57 % 0.00 in 0.00 W/m2
20:32 76.2 °F 59.9 °F 29.90 in Calm     57 % 0.00 in 0.00 W/m2
20:37 76.1 °F 59.8 °F 29.90 in Calm     57 % 0.00 in 0.00 W/m2
20:42 75.9 °F 60.1 °F 29.90 in Calm     58 % 0.00 in 0.00 W/m2
20:47 75.7 °F 59.9 °F 29.90 in Calm     58 % 0.00 in 0.00 W/m2
20:52 75.5 °F 59.7 °F 29.90 in Calm     58 % 0.00 in 0.00 W/m2
20:57 75.3 °F 59.5 °F 29.90 in Calm     58 % 0.00 in 0.00 W/m2
21:02 75.1 °F 59.8 °F 29.90 in Calm     59 % 0.00 in 0.00 W/m2
21:07 75.0 °F 59.7 °F 29.90 in Calm     59 % 0.00 in 0.00 W/m2
21:12 74.8 °F 59.5 °F 29.90 in Calm     59 % 0.00 in 0.00 W/m2
21:17 74.5 °F 59.2 °F 29.90 in Calm     59 % 0.00 in 0.00 W/m2
21:22 74.1 °F 59.3 °F 29.90 in Calm     60 % 0.00 in 0.00 W/m2
21:27 73.8 °F 59.1 °F 29.90 in Calm     60 % 0.00 in 0.00 W/m2
21:32 73.5 °F 59.2 °F 29.90 in Calm     61 % 0.00 in 0.00 W/m2
21:37 73.3 °F 59.0 °F 29.90 in Calm     61 % 0.00 in 0.00 W/m2
21:42 73.2 °F 59.0 °F 29.90 in Calm     61 % 0.00 in 0.00 W/m2
21:47 73.2 °F 59.0 °F 29.90 in Calm     61 % 0.00 in 0.00 W/m2
21:52 73.1 °F 58.9 °F 29.90 in Calm     61 % 0.00 in 0.00 W/m2
21:58 73.2 °F 59.0 °F 29.89 in Calm     61 % 0.00 in 0.00 W/m2
22:03 73.2 °F 59.0 °F 29.89 in Calm   3.0 mph 61 % 0.00 in 0.00 W/m2
22:08 73.1 °F 58.9 °F 29.90 in Calm     61 % 0.00 in 0.00 W/m2
22:13 73.1 °F 58.9 °F 29.90 in Calm   3.0 mph 61 % 0.00 in 0.00 W/m2
22:18 73.1 °F 58.9 °F 29.90 in Calm   4.0 mph 61 % 0.00 in 0.00 W/m2
22:23 73.1 °F 58.9 °F 29.89 in Calm   2.0 mph 61 % 0.00 in 0.00 W/m2
22:28 73.1 °F 58.9 °F 29.89 in Calm   1.0 mph 61 % 0.00 in 0.00 W/m2
22:33 73.1 °F 58.9 °F 29.89 in Calm     61 % 0.00 in 0.00 W/m2
22:38 73.1 °F 58.9 °F 29.89 in SW 2.0 mph 5.0 mph 61 % 0.00 in 0.00 W/m2
22:43 73.1 °F 58.9 °F 29.89 in Calm   5.0 mph 61 % 0.00 in 0.00 W/m2
22:48 73.0 °F 58.8 °F 29.89 in Calm   4.0 mph 61 % 0.00 in 0.00 W/m2
22:53 73.0 °F 59.2 °F 29.89 in SSW 3.0 mph 4.0 mph 62 % 0.00 in 0.00 W/m2
22:58 72.9 °F 59.1 °F 29.89 in Calm     62 % 0.00 in 0.00 W/m2
23:03 72.8 °F 59.0 °F 29.89 in Calm   3.0 mph 62 % 0.00 in 0.00 W/m2
23:08 72.7 °F 58.9 °F 29.89 in Calm   2.0 mph 62 % 0.00 in 0.00 W/m2
23:13 72.6 °F 58.8 °F 29.89 in Calm   4.0 mph 62 % 0.00 in 0.00 W/m2
23:18 72.5 °F 58.8 °F 29.89 in SE 4.0 mph 5.0 mph 62 % 0.00 in 0.00 W/m2
23:23 72.4 °F 58.7 °F 29.89 in Calm   1.0 mph 62 % 0.00 in 0.00 W/m2
23:28 72.3 °F 59.0 °F 29.89 in Calm   6.0 mph 63 % 0.00 in 0.00 W/m2
23:33 72.2 °F 58.5 °F 29.88 in ESE 7.0 mph 7.0 mph 62 % 0.00 in 0.00 W/m2
23:38 72.1 °F 58.4 °F 29.88 in Calm   11.0 mph 62 % 0.00 in 0.00 W/m2
23:43 72.1 °F 58.4 °F 29.88 in Calm   7.0 mph 62 % 0.00 in 0.00 W/m2
23:48 72.1 °F 58.4 °F 29.88 in ESE 7.0 mph 8.0 mph 62 % 0.00 in 0.00 W/m2
23:53 72.1 °F 58.4 °F 29.88 in ESE 7.0 mph 12.0 mph 62 % 0.00 in 0.00 W/m2
23:58 72.2 °F 58.5 °F 29.88 in East 2.0 mph 12.0 mph 62 % 0.00 in 0.00 W/m2
Juneau County Weather
Compliments of Weather Underground - 4.5 mb
 WU-history PHP script courtesy of   Juneau County Weather.
powered by Cumulus v1.9.3 (1059)
Ambient Weather VWS v14.00
Top Contact Website Map Copyright © 2007 - 2018 Foresthillweather.com Never base important decisions on this or any weather information obtained from the Internet